Time;durP1;ratioP1;P1;durP2;ratioP2;P2;SDS_P1;SDS_P2;PMS_P1;PMS_P2;Temp;Humidity;BMP_temperature;BMP_pressure;BME280_temperature;BME280_humidity;BME280_pressure;Samples;Min_cycle;Max_cycle;Signal;HPM_P1;HPM_P2
2023/02/02 00:01:36;;;;;;;50.78;19.30;;;;;;;;;;6127599;28;20057;-68
2023/02/02 00:04:38;;;;;;;18.38;8.85;;;;;;;;;;6128331;29;20056;-69
2023/02/02 00:07:39;;;;;;;9.38;4.60;;;;;;;;;;6129185;28;20339;-69
2023/02/02 00:10:42;;;;;;;13.85;4.40;;;;;;;;;;6126505;28;20066;-68
2023/02/02 00:13:44;;;;;;;12.10;4.45;;;;;;;;;;6127143;29;20111;-69
2023/02/02 00:16:46;;;;;;;13.15;4.65;;;;;;;;;;6126303;28;20162;-68
2023/02/02 00:19:48;;;;;;;9.65;4.25;;;;;;;;;;6129934;28;20059;-69
2023/02/02 00:22:50;;;;;;;8.57;4.38;;;;;;;;;;6128849;28;20044;-70
2023/02/02 00:25:53;;;;;;;11.20;4.10;;;;;;;;;;6128167;28;20339;-67
2023/02/02 00:28:54;;;;;;;9.88;4.80;;;;;;;;;;6127777;28;20047;-68
2023/02/02 00:31:56;;;;;;;10.23;4.45;;;;;;;;;;6127520;28;20047;-68
2023/02/02 00:34:58;;;;;;;10.45;4.75;;;;;;;;;;6124624;28;20082;-70
2023/02/02 00:38:00;;;;;;;8.13;4.15;;;;;;;;;;6128524;29;20075;-67
2023/02/02 00:41:03;;;;;;;13.25;4.80;;;;;;;;;;6127315;28;20107;-68
2023/02/02 00:47:24;;;;;;;12.48;4.05;;;;;;;;;;6126713;28;20070;-68
2023/02/02 00:50:25;;;;;;;9.40;4.15;;;;;;;;;;6130401;28;20078;-69
2023/02/02 00:53:27;;;;;;;9.65;4.75;;;;;;;;;;6125504;28;20063;-68
2023/02/02 00:56:31;;;;;;;10.18;3.85;;;;;;;;;;6125690;28;20070;-69
2023/02/02 00:59:33;;;;;;;11.98;3.90;;;;;;;;;;6125495;28;20068;-69
2023/02/02 01:02:35;;;;;;;8.15;3.58;;;;;;;;;;6125698;28;20059;-69
2023/02/02 01:05:37;;;;;;;9.05;3.92;;;;;;;;;;6125599;28;20275;-69
2023/02/02 01:08:39;;;;;;;9.88;4.22;;;;;;;;;;6125524;28;20108;-69
2023/02/02 01:11:42;;;;;;;12.23;5.07;;;;;;;;;;6124381;28;21771;-69
2023/02/02 01:14:43;;;;;;;10.77;3.85;;;;;;;;;;6125225;28;20239;-69
2023/02/02 01:17:45;;;;;;;10.15;4.45;;;;;;;;;;6129410;28;20048;-69
2023/02/02 01:20:47;;;;;;;12.95;4.72;;;;;;;;;;6126439;28;20050;-68
2023/02/02 01:23:49;;;;;;;10.43;4.40;;;;;;;;;;6126248;28;20055;-69
2023/02/02 01:26:52;;;;;;;9.00;3.95;;;;;;;;;;6124756;28;20056;-69
2023/02/02 01:29:53;;;;;;;7.13;3.70;;;;;;;;;;6128570;28;20091;-69
2023/02/02 01:32:55;;;;;;;7.88;3.60;;;;;;;;;;6127601;28;20110;-68
2023/02/02 01:35:56;;;;;;;8.75;3.85;;;;;;;;;;6125349;28;21121;-67
2023/02/02 01:38:58;;;;;;;7.85;4.05;;;;;;;;;;6127550;28;21176;-69
2023/02/02 01:42:01;;;;;;;9.15;3.78;;;;;;;;;;6121671;29;20048;-69
2023/02/02 01:45:20;;;;;;;10.32;4.40;;;;;;;;;;6125128;28;20166;-67
2023/02/02 01:48:24;;;;;;;10.40;4.18;;;;;;;;;;6128001;28;20063;-70
2023/02/02 01:51:31;;;;;;;12.98;4.35;;;;;;;;;;6129277;28;20119;-70
2023/02/02 01:54:35;;;;;;;9.85;5.20;;;;;;;;;;6131659;28;20047;-67
2023/02/02 01:57:41;;;;;;;12.27;4.53;;;;;;;;;;6130093;28;20065;-69
2023/02/02 02:00:43;;;;;;;9.55;5.10;;;;;;;;;;6128918;28;20063;-69
2023/02/02 02:03:45;;;;;;;7.50;4.07;;;;;;;;;;6131024;28;20059;-70
2023/02/02 02:06:47;;;;;;;10.60;4.60;;;;;;;;;;6127990;28;20051;-69
2023/02/02 02:09:49;;;;;;;11.25;5.20;;;;;;;;;;6128732;29;20055;-69
2023/02/02 02:12:52;;;;;;;8.57;4.28;;;;;;;;;;6127429;28;20040;-69
2023/02/02 02:26:56;;;;;;;9.23;5.00;;;;;;;;;;6129190;28;20339;-68
2023/02/02 02:30:23;;;;;;;13.63;5.65;;;;;;;;;;6129390;29;20339;-69
2023/02/02 02:33:29;;;;;;;10.63;5.82;;;;;;;;;;6127383;28;20280;-68
2023/02/02 02:36:39;;;;;;;14.30;5.97;;;;;;;;;;6130062;28;20059;-69
2023/02/02 02:39:45;;;;;;;14.10;6.10;;;;;;;;;;6131557;28;20819;-69
2023/02/02 02:42:51;;;;;;;12.43;5.40;;;;;;;;;;6127291;28;20115;-68
2023/02/02 02:45:52;;;;;;;11.77;6.45;;;;;;;;;;6129188;29;20073;-69
2023/02/02 02:48:57;;;;;;;14.15;5.38;;;;;;;;;;6131000;28;21550;-69
2023/02/02 02:51:59;;;;;;;11.52;5.03;;;;;;;;;;6126898;28;20235;-69
2023/02/02 02:55:02;;;;;;;13.55;5.70;;;;;;;;;;6129538;28;20095;-69
2023/02/02 02:58:07;;;;;;;10.90;5.43;;;;;;;;;;6129864;28;20064;-69
2023/02/02 03:01:14;;;;;;;9.70;5.55;;;;;;;;;;6127715;28;20095;-69
2023/02/02 03:04:22;;;;;;;10.45;5.00;;;;;;;;;;6127056;28;20335;-68
2023/02/02 03:07:27;;;;;;;8.93;5.30;;;;;;;;;;6128595;28;20055;-69
2023/02/02 03:10:30;;;;;;;10.27;4.43;;;;;;;;;;6128458;28;20064;-68
2023/02/02 03:13:31;;;;;;;10.10;4.47;;;;;;;;;;6126409;28;20288;-69
2023/02/02 03:16:33;;;;;;;12.15;5.30;;;;;;;;;;6129565;28;20055;-68
2023/02/02 03:19:36;;;;;;;13.05;5.32;;;;;;;;;;6130458;28;20051;-69
2023/02/02 03:22:38;;;;;;;10.65;5.38;;;;;;;;;;6126973;28;20275;-69
2023/02/02 03:25:39;;;;;;;13.95;5.40;;;;;;;;;;6127313;28;20378;-69
2023/02/02 03:28:41;;;;;;;10.48;6.22;;;;;;;;;;6128588;28;20572;-67
2023/02/02 03:31:43;;;;;;;12.30;4.85;;;;;;;;;;6128458;29;20323;-69
2023/02/02 03:34:46;;;;;;;11.15;5.65;;;;;;;;;;6126567;28;20063;-70
2023/02/02 03:37:48;;;;;;;11.65;5.57;;;;;;;;;;6127688;28;20051;-69
2023/02/02 03:40:50;;;;;;;15.90;5.50;;;;;;;;;;6126824;28;20048;-69
2023/02/02 03:43:52;;;;;;;12.80;5.68;;;;;;;;;;6110916;28;20392;-69
2023/02/02 03:46:54;;;;;;;13.20;6.43;;;;;;;;;;6104914;29;20071;-69
2023/02/02 03:49:57;;;;;;;12.25;5.88;;;;;;;;;;6102791;29;20055;-68
2023/02/02 03:52:59;;;;;;;13.82;5.97;;;;;;;;;;6105889;28;20055;-70
2023/02/02 03:56:00;;;;;;;13.93;6.40;;;;;;;;;;6103620;29;20056;-66
2023/02/02 03:59:02;;;;;;;16.05;7.15;;;;;;;;;;6107265;28;20064;-68
2023/02/02 04:02:04;;;;;;;14.55;6.38;;;;;;;;;;6105953;29;20293;-70
2023/02/02 04:05:07;;;;;;;11.63;6.13;;;;;;;;;;6106940;29;20142;-69
2023/02/02 04:08:09;;;;;;;14.02;6.55;;;;;;;;;;6104977;29;20055;-69
2023/02/02 04:11:11;;;;;;;9.60;5.75;;;;;;;;;;6106884;28;20047;-69
2023/02/02 04:14:13;;;;;;;11.60;5.20;;;;;;;;;;6105049;29;20048;-67
2023/02/02 04:17:14;;;;;;;15.80;5.45;;;;;;;;;;6105992;28;20048;-68
2023/02/02 04:20:18;;;;;;;13.63;6.05;;;;;;;;;;6107151;29;20056;-69
2023/02/02 04:23:19;;;;;;;10.63;5.47;;;;;;;;;;6107745;28;20060;-69
2023/02/02 04:26:24;;;;;;;9.93;6.07;;;;;;;;;;6109488;28;20056;-68
2023/02/02 04:29:26;;;;;;;12.10;5.63;;;;;;;;;;6103991;29;20174;-69
2023/02/02 04:32:27;;;;;;;16.73;6.88;;;;;;;;;;6108011;29;20106;-69
2023/02/02 04:35:30;;;;;;;10.88;6.20;;;;;;;;;;6107029;29;20100;-70
2023/02/02 04:38:32;;;;;;;13.60;6.22;;;;;;;;;;6105781;28;20060;-70
2023/02/02 04:41:34;;;;;;;11.63;6.32;;;;;;;;;;6109739;29;20060;-68
2023/02/02 04:44:35;;;;;;;12.55;6.80;;;;;;;;;;6129064;28;20131;-69
2023/02/02 04:47:37;;;;;;;13.48;6.47;;;;;;;;;;6128791;28;20102;-69
2023/02/02 04:50:40;;;;;;;13.68;7.35;;;;;;;;;;6125907;28;20048;-70
2023/02/02 04:53:42;;;;;;;17.98;7.50;;;;;;;;;;6128145;28;20111;-70
2023/02/02 04:56:44;;;;;;;14.73;7.32;;;;;;;;;;6126244;28;20060;-71
2023/02/02 04:59:45;;;;;;;15.70;7.15;;;;;;;;;;6128316;28;20063;-70
2023/02/02 05:02:47;;;;;;;15.02;7.97;;;;;;;;;;6126103;28;20048;-70
2023/02/02 05:05:50;;;;;;;13.43;7.63;;;;;;;;;;6129248;28;20103;-69
2023/02/02 05:08:52;;;;;;;15.60;7.60;;;;;;;;;;6126549;28;20056;-70
2023/02/02 05:11:53;;;;;;;14.93;7.70;;;;;;;;;;6127056;28;20059;-70
2023/02/02 05:14:55;;;;;;;21.42;8.45;;;;;;;;;;6126118;28;20056;-70
2023/02/02 05:17:57;;;;;;;17.80;7.15;;;;;;;;;;6126410;29;20059;-66
2023/02/02 05:21:01;;;;;;;24.73;8.73;;;;;;;;;;6126572;28;20247;-68
2023/02/02 05:24:02;;;;;;;16.02;8.63;;;;;;;;;;6126390;28;20111;-69
2023/02/02 05:27:04;;;;;;;17.45;8.68;;;;;;;;;;6124842;29;20060;-70
2023/02/02 05:30:07;;;;;;;12.40;7.18;;;;;;;;;;6128495;29;20055;-68
2023/02/02 05:33:09;;;;;;;18.25;6.95;;;;;;;;;;6127576;28;20253;-69
2023/02/02 05:36:12;;;;;;;18.48;8.13;;;;;;;;;;6128534;28;20071;-69
2023/02/02 05:39:14;;;;;;;16.77;6.95;;;;;;;;;;6123652;28;20055;-69
2023/02/02 05:42:15;;;;;;;14.85;6.32;;;;;;;;;;6126442;28;20052;-69
2023/02/02 05:45:17;;;;;;;13.07;6.18;;;;;;;;;;6126953;28;20048;-69
2023/02/02 05:48:19;;;;;;;13.45;6.47;;;;;;;;;;6129567;28;20056;-68
2023/02/02 05:51:24;;;;;;;13.15;5.60;;;;;;;;;;6125843;28;20335;-69
2023/02/02 05:54:26;;;;;;;10.27;5.13;;;;;;;;;;6123513;28;20351;-67
2023/02/02 05:57:28;;;;;;;10.40;4.97;;;;;;;;;;6125125;28;20108;-66
2023/02/02 06:00:29;;;;;;;12.55;4.63;;;;;;;;;;6125072;28;20056;-69
2023/02/02 06:03:31;;;;;;;8.73;4.03;;;;;;;;;;6123592;28;20235;-68
2023/02/02 06:06:36;;;;;;;9.98;4.20;;;;;;;;;;6121486;28;20111;-66
2023/02/02 06:09:38;;;;;;;11.05;3.78;;;;;;;;;;6124187;28;20047;-68
2023/02/02 06:12:40;;;;;;;5.95;2.92;;;;;;;;;;6120936;28;20059;-67
2023/02/02 06:15:42;;;;;;;7.28;3.10;;;;;;;;;;6127403;28;20368;-67
2023/02/02 06:18:44;;;;;;;7.72;3.03;;;;;;;;;;6125555;28;20051;-67
2023/02/02 06:21:47;;;;;;;10.45;3.05;;;;;;;;;;6125998;28;20323;-67
2023/02/02 06:24:48;;;;;;;13.27;3.88;;;;;;;;;;6125807;28;20149;-67
2023/02/02 06:27:50;;;;;;;6.32;2.83;;;;;;;;;;6126200;28;20055;-66
2023/02/02 06:30:52;;;;;;;7.32;3.05;;;;;;;;;;6124614;28;20056;-66
2023/02/02 06:33:55;;;;;;;7.75;3.10;;;;;;;;;;6128163;28;20055;-66
2023/02/02 06:36:58;;;;;;;6.20;2.50;;;;;;;;;;6131207;28;20067;-66
2023/02/02 06:40:00;;;;;;;3.30;2.05;;;;;;;;;;6132420;29;20103;-66
2023/02/02 06:43:03;;;;;;;4.95;2.58;;;;;;;;;;6131361;28;20063;-65
2023/02/02 06:46:05;;;;;;;5.60;2.10;;;;;;;;;;6132607;28;20067;-65
2023/02/02 06:49:06;;;;;;;5.25;2.00;;;;;;;;;;6128074;28;20063;-64
2023/02/02 06:52:09;;;;;;;7.30;2.05;;;;;;;;;;6127907;28;20055;-66
2023/02/02 06:55:11;;;;;;;6.22;2.10;;;;;;;;;;6131252;28;20334;-66
2023/02/02 06:58:13;;;;;;;3.08;1.70;;;;;;;;;;6124869;28;20058;-65
2023/02/02 07:01:14;;;;;;;11.15;2.45;;;;;;;;;;6131068;28;20087;-66
2023/02/02 07:04:17;;;;;;;8.10;2.17;;;;;;;;;;6130803;28;20056;-65
2023/02/02 07:07:19;;;;;;;5.15;1.80;;;;;;;;;;6128848;28;20047;-65
2023/02/02 07:10:21;;;;;;;8.50;2.42;;;;;;;;;;6129101;28;20106;-65
2023/02/02 07:13:23;;;;;;;8.15;2.13;;;;;;;;;;6129697;28;20052;-65
2023/02/02 07:16:25;;;;;;;9.65;2.60;;;;;;;;;;6126295;28;20059;-66
2023/02/02 07:19:27;;;;;;;4.22;2.42;;;;;;;;;;6125546;28;20501;-66
2023/02/02 07:22:30;;;;;;;9.10;2.70;;;;;;;;;;6128269;28;20048;-65
2023/02/02 07:25:31;;;;;;;9.95;2.78;;;;;;;;;;6125765;28;20103;-65
2023/02/02 07:28:33;;;;;;;5.10;1.80;;;;;;;;;;6126150;28;20248;-66
2023/02/02 07:31:35;;;;;;;5.97;2.05;;;;;;;;;;6126887;29;20051;-64
2023/02/02 07:34:38;;;;;;;3.97;1.80;;;;;;;;;;6125370;28;20375;-65
2023/02/02 07:37:41;;;;;;;4.03;1.98;;;;;;;;;;6128612;28;20083;-65
2023/02/02 07:40:43;;;;;;;6.60;2.13;;;;;;;;;;6130629;28;20055;-65
2023/02/02 07:43:46;;;;;;;9.02;2.30;;;;;;;;;;6128798;28;20381;-65
2023/02/02 07:46:48;;;;;;;8.77;1.98;;;;;;;;;;6128427;28;20048;-65
2023/02/02 07:49:50;;;;;;;4.28;2.28;;;;;;;;;;6125503;28;20901;-65
2023/02/02 07:52:53;;;;;;;7.32;2.10;;;;;;;;;;6124257;28;20063;-65
2023/02/02 07:56:05;;;;;;;10.40;2.40;;;;;;;;;;6128913;28;20056;-66
2023/02/02 07:59:07;;;;;;;7.38;2.03;;;;;;;;;;6129495;28;20483;-65
2023/02/02 08:02:09;;;;;;;5.63;2.05;;;;;;;;;;6129559;29;20051;-66
2023/02/02 08:05:11;;;;;;;13.52;2.40;;;;;;;;;;6130641;28;20147;-65
2023/02/02 08:08:14;;;;;;;6.85;1.92;;;;;;;;;;6127919;28;20122;-65
2023/02/02 08:11:17;;;;;;;5.05;2.28;;;;;;;;;;6126346;28;20047;-65
2023/02/02 08:14:19;;;;;;;8.70;3.10;;;;;;;;;;6125935;28;20052;-66
2023/02/02 08:17:22;;;;;;;8.40;3.30;;;;;;;;;;6125668;28;20064;-65
2023/02/02 08:20:23;;;;;;;16.45;3.95;;;;;;;;;;6126571;28;20062;-65
2023/02/02 08:23:27;;;;;;;13.73;4.50;;;;;;;;;;6128167;29;20059;-65
2023/02/02 08:26:29;;;;;;;21.00;6.95;;;;;;;;;;6126464;28;20047;-66
2023/02/02 08:29:31;;;;;;;16.67;7.05;;;;;;;;;;6126907;28;20139;-65
2023/02/02 08:32:32;;;;;;;12.98;6.97;;;;;;;;;;6127631;28;20403;-66
2023/02/02 08:35:34;;;;;;;15.95;6.88;;;;;;;;;;6127364;28;20099;-65
2023/02/02 08:38:37;;;;;;;13.45;7.13;;;;;;;;;;6129359;28;20056;-66
2023/02/02 08:41:39;;;;;;;15.43;7.65;;;;;;;;;;6128668;28;20673;-65
2023/02/02 08:44:40;;;;;;;26.08;8.23;;;;;;;;;;6125998;28;20086;-65
2023/02/02 08:47:42;;;;;;;15.45;7.78;;;;;;;;;;6125940;28;20071;-65
2023/02/02 08:50:44;;;;;;;13.30;7.85;;;;;;;;;;6128538;28;20055;-65
2023/02/02 08:53:47;;;;;;;15.80;8.10;;;;;;;;;;6128443;28;20063;-65
2023/02/02 08:56:49;;;;;;;11.10;7.50;;;;;;;;;;6125900;28;20052;-65
2023/02/02 08:59:50;;;;;;;19.58;8.32;;;;;;;;;;6126089;28;20062;-66
2023/02/02 09:02:52;;;;;;;13.68;8.02;;;;;;;;;;6124606;28;20059;-66
2023/02/02 09:05:54;;;;;;;12.63;7.65;;;;;;;;;;6123677;29;20056;-65
2023/02/02 09:08:57;;;;;;;13.55;6.78;;;;;;;;;;6127374;28;20048;-65
2023/02/02 09:11:58;;;;;;;15.23;6.35;;;;;;;;;;6126464;28;20396;-65
2023/02/02 09:15:00;;;;;;;14.25;5.88;;;;;;;;;;6126184;28;20114;-65
2023/02/02 09:18:02;;;;;;;12.20;5.13;;;;;;;;;;6124520;29;20060;-66
2023/02/02 09:21:05;;;;;;;15.35;6.35;;;;;;;;;;6127689;28;20118;-65
2023/02/02 09:24:10;;;;;;;12.13;5.47;;;;;;;;;;6128545;29;20119;-66
2023/02/02 09:27:12;;;;;;;9.93;5.40;;;;;;;;;;6126108;28;20768;-66
2023/02/02 09:30:14;;;;;;;12.25;5.70;;;;;;;;;;6127959;28;20055;-65
2023/02/02 09:33:16;;;;;;;12.52;4.97;;;;;;;;;;6127664;28;20051;-65
2023/02/02 09:36:20;;;;;;;8.95;4.57;;;;;;;;;;6126384;28;20131;-66
2023/02/02 09:39:23;;;;;;;11.55;4.97;;;;;;;;;;6127642;28;20059;-65
2023/02/02 09:42:33;;;;;;;9.23;5.03;;;;;;;;;;6127639;28;20095;-65
2023/02/02 09:45:39;;;;;;;11.10;4.68;;;;;;;;;;6127377;28;20043;-65
2023/02/02 09:48:46;;;;;;;13.05;5.05;;;;;;;;;;6126381;28;20197;-65
2023/02/02 09:51:54;;;;;;;11.57;5.25;;;;;;;;;;6127737;28;20252;-66
2023/02/02 09:55:00;;;;;;;12.80;5.60;;;;;;;;;;6122955;28;20098;-65
2023/02/02 09:58:08;;;;;;;8.13;4.82;;;;;;;;;;6126196;29;20055;-66
2023/02/02 10:01:13;;;;;;;11.02;5.75;;;;;;;;;;6123262;28;20056;-66
2023/02/02 10:04:19;;;;;;;16.17;6.30;;;;;;;;;;6126374;28;20060;-65
2023/02/02 10:07:27;;;;;;;13.45;5.25;;;;;;;;;;6127542;28;20060;-65
2023/02/02 10:10:35;;;;;;;9.77;5.65;;;;;;;;;;6130965;28;20067;-66
2023/02/02 10:13:42;;;;;;;11.63;5.72;;;;;;;;;;6130924;28;20058;-65
2023/02/02 10:16:44;;;;;;;10.38;4.88;;;;;;;;;;6131056;29;20066;-65
2023/02/02 10:19:46;;;;;;;10.68;5.32;;;;;;;;;;6129247;28;20171;-65
2023/02/02 10:22:48;;;;;;;15.15;4.97;;;;;;;;;;6129762;28;20063;-65
2023/02/02 10:25:57;;;;;;;8.23;4.90;;;;;;;;;;6127942;28;20059;-65
2023/02/02 10:29:05;;;;;;;10.23;4.55;;;;;;;;;;6128143;28;20059;-65
2023/02/02 10:32:21;;;;;;;13.18;4.90;;;;;;;;;;6128067;29;20060;-66
2023/02/02 10:35:36;;;;;;;9.35;5.00;;;;;;;;;;6130965;28;20135;-66
2023/02/02 10:38:41;;;;;;;8.75;4.53;;;;;;;;;;6129935;28;20067;-66
2023/02/02 10:41:52;;;;;;;7.22;3.92;;;;;;;;;;6129367;28;20071;-65
2023/02/02 10:44:56;;;;;;;7.35;4.60;;;;;;;;;;6130949;28;20074;-66
2023/02/02 10:47:58;;;;;;;7.00;4.30;;;;;;;;;;6130162;28;20051;-65
2023/02/02 10:51:02;;;;;;;9.52;4.32;;;;;;;;;;6129305;28;20055;-65
2023/02/02 10:54:11;;;;;;;6.72;3.63;;;;;;;;;;6129587;28;20059;-65
2023/02/02 10:57:18;;;;;;;6.50;3.45;;;;;;;;;;6127467;28;20399;-65
2023/02/02 11:00:22;;;;;;;6.15;3.30;;;;;;;;;;6131205;28;20058;-65
2023/02/02 11:03:25;;;;;;;;;;;;;;;;;;6131559;28;20055;-66
2023/02/02 11:09:46;;;;;;;7.03;3.30;;;;;;;;;;6132726;28;20047;-65
2023/02/02 11:12:52;;;;;;;6.30;2.72;;;;;;;;;;6130696;28;20328;-65
2023/02/02 11:16:25;;;;;;;5.18;2.67;;;;;;;;;;6129701;28;20218;-66
2023/02/02 11:19:29;;;;;;;5.13;2.67;;;;;;;;;;6127269;29;20044;-66
2023/02/02 11:22:33;;;;;;;10.90;2.65;;;;;;;;;;6130211;29;20047;-66
2023/02/02 11:25:38;;;;;;;4.25;2.50;;;;;;;;;;6128593;28;20291;-65
2023/02/02 11:28:41;;;;;;;6.57;2.30;;;;;;;;;;6128715;28;20064;-65
2023/02/02 11:31:42;;;;;;;4.23;2.37;;;;;;;;;;6128509;28;20093;-65
2023/02/02 11:34:44;;;;;;;6.35;2.75;;;;;;;;;;6127549;28;20047;-65
2023/02/02 11:37:54;;;;;;;4.95;2.83;;;;;;;;;;6129114;28;20324;-65
2023/02/02 11:41:01;;;;;;;4.13;2.58;;;;;;;;;;6127622;29;20115;-65
2023/02/02 11:44:07;;;;;;;5.05;2.50;;;;;;;;;;6128291;28;20063;-65
2023/02/02 11:47:19;;;;;;;4.57;2.70;;;;;;;;;;6128004;28;20062;-65
2023/02/02 11:50:25;;;;;;;8.65;2.85;;;;;;;;;;6129215;28;20239;-65
2023/02/02 11:53:29;;;;;;;3.35;2.20;;;;;;;;;;6128545;29;20111;-66
2023/02/02 11:56:31;;;;;;;4.03;2.10;;;;;;;;;;6127647;28;20051;-66
2023/02/02 11:59:36;;;;;;;5.30;2.20;;;;;;;;;;6129356;28;20059;-66
2023/02/02 12:02:45;;;;;;;6.13;2.10;;;;;;;;;;6128627;28;20055;-66
2023/02/02 12:05:48;;;;;;;4.40;2.85;;;;;;;;;;6131129;28;20063;-66
2023/02/02 12:08:53;;;;;;;4.83;2.03;;;;;;;;;;6129443;28;20150;-66
2023/02/02 12:12:01;;;;;;;3.50;2.13;;;;;;;;;;6128074;28;20700;-66
2023/02/02 12:15:10;;;;;;;5.80;2.30;;;;;;;;;;6127916;28;20217;-65
2023/02/02 12:18:24;;;;;;;6.28;2.38;;;;;;;;;;6128749;29;20338;-66
2023/02/02 12:21:35;;;;;;;5.60;2.28;;;;;;;;;;6128416;28;20252;-66
2023/02/02 12:24:41;;;;;;;3.20;1.92;;;;;;;;;;6129593;28;20095;-66
2023/02/02 12:27:46;;;;;;;4.22;2.63;;;;;;;;;;6126866;28;20040;-65
2023/02/02 12:30:54;;;;;;;7.10;3.67;;;;;;;;;;6124805;28;20059;-65
2023/02/02 12:34:06;;;;;;;11.77;2.90;;;;;;;;;;6126065;28;20331;-65
2023/02/02 12:37:14;;;;;;;5.78;3.10;;;;;;;;;;6128046;28;20060;-66
2023/02/02 12:40:27;;;;;;;6.53;3.10;;;;;;;;;;6125557;28;20064;-65
2023/02/02 12:43:37;;;;;;;6.95;3.30;;;;;;;;;;6126524;28;20048;-66
2023/02/02 12:46:50;;;;;;;4.78;2.63;;;;;;;;;;6125302;28;20052;-65
2023/02/02 12:50:05;;;;;;;3.80;2.33;;;;;;;;;;6127221;28;20106;-65
2023/02/02 12:53:19;;;;;;;3.42;2.17;;;;;;;;;;6128044;28;20251;-68
2023/02/02 12:56:26;;;;;;;4.45;2.13;;;;;;;;;;6127802;28;20059;-66
2023/02/02 12:59:45;;;;;;;4.13;2.15;;;;;;;;;;6128724;28;20346;-65
2023/02/02 13:03:00;;;;;;;5.82;2.80;;;;;;;;;;6129124;28;20067;-65
2023/02/02 13:06:16;;;;;;;4.25;2.22;;;;;;;;;;6127719;28;20244;-65
2023/02/02 13:09:22;;;;;;;4.90;2.63;;;;;;;;;;6125993;28;20040;-65
2023/02/02 13:12:24;;;;;;;6.20;2.35;;;;;;;;;;6128272;28;20457;-65
2023/02/02 13:15:29;;;;;;;3.83;2.42;;;;;;;;;;6128037;28;20043;-65
2023/02/02 13:18:36;;;;;;;6.22;2.10;;;;;;;;;;6125054;28;20060;-65
2023/02/02 13:21:38;;;;;;;5.88;2.70;;;;;;;;;;6127145;28;20094;-65
2023/02/02 13:24:42;;;;;;;7.13;3.53;;;;;;;;;;6127729;28;20123;-64
2023/02/02 13:27:44;;;;;;;5.55;2.80;;;;;;;;;;6126644;28;20055;-65
2023/02/02 13:30:47;;;;;;;5.90;2.85;;;;;;;;;;6126178;28;20252;-65
2023/02/02 13:33:58;;;;;;;6.27;2.83;;;;;;;;;;6126895;28;20110;-64
2023/02/02 13:37:03;;;;;;;4.72;2.45;;;;;;;;;;6126619;28;20455;-64
2023/02/02 13:40:16;;;;;;;5.43;2.50;;;;;;;;;;6128493;28;20064;-65
2023/02/02 13:43:34;;;;;;;5.10;2.50;;;;;;;;;;6123388;28;20130;-65
2023/02/02 13:46:41;;;;;;;6.82;2.88;;;;;;;;;;6127422;28;20396;-65
2023/02/02 13:49:47;;;;;;;5.93;3.10;;;;;;;;;;6127636;28;20043;-65
2023/02/02 13:53:08;;;;;;;4.78;2.60;;;;;;;;;;6122785;28;20108;-66
2023/02/02 13:56:27;;;;;;;5.75;2.80;;;;;;;;;;6126696;28;20048;-65
2023/02/02 13:59:47;;;;;;;4.88;2.65;;;;;;;;;;6129364;28;20206;-66
2023/02/02 14:02:50;;;;;;;7.35;3.25;;;;;;;;;;6128561;28;20066;-66
2023/02/02 14:06:05;;;;;;;5.07;2.80;;;;;;;;;;6125677;29;20111;-65
2023/02/02 14:09:07;;;;;;;22.45;14.52;;;;;;;;;;6125857;28;20059;-67
2023/02/02 14:12:11;;;;;;;9.85;4.97;;;;;;;;;;6125433;28;20119;-67
2023/02/02 14:15:12;;;;;;;28.73;17.67;;;;;;;;;;6128628;28;20059;-67
2023/02/02 14:18:53;;;;;;;7.72;4.85;;;;;;;;;;6124729;28;20062;-67
2023/02/02 14:22:03;;;;;;;7.88;4.90;;;;;;;;;;6127624;28;20367;-67
2023/02/02 14:25:38;;;;;;;9.27;4.68;;;;;;;;;;6129068;28;20047;-66
2023/02/02 14:28:48;;;;;;;8.85;4.90;;;;;;;;;;6127067;28;20077;-66
2023/02/02 14:31:54;;;;;;;8.63;5.05;;;;;;;;;;6122831;28;20091;-65
2023/02/02 14:34:57;;;;;;;8.35;4.90;;;;;;;;;;6125800;28;20099;-66
2023/02/02 14:38:05;;;;;;;11.18;5.38;;;;;;;;;;6125978;28;20044;-66
2023/02/02 14:41:14;;;;;;;12.27;6.32;;;;;;;;;;6122969;28;20078;-66
2023/02/02 14:44:15;;;;;;;9.65;6.03;;;;;;;;;;6129838;28;20123;-65
2023/02/02 14:47:41;;;;;;;13.13;6.45;;;;;;;;;;6125507;28;20123;-66
2023/02/02 14:50:48;;;;;;;10.52;6.18;;;;;;;;;;6123664;28;20062;-65
2023/02/02 14:53:53;;;;;;;11.55;5.70;;;;;;;;;;6126450;28;20062;-66
2023/02/02 14:56:59;;;;;;;11.07;6.88;;;;;;;;;;6128885;28;20078;-65
2023/02/02 15:00:00;;;;;;;12.50;6.20;;;;;;;;;;6130241;29;20059;-65
2023/02/02 15:03:33;;;;;;;11.60;5.95;;;;;;;;;;6131097;28;20064;-65
2023/02/02 15:06:39;;;;;;;12.82;5.80;;;;;;;;;;6131803;28;20239;-66
2023/02/02 15:09:42;;;;;;;12.85;5.22;;;;;;;;;;6129694;28;20055;-66
2023/02/02 15:12:44;;;;;;;7.82;5.10;;;;;;;;;;6128150;28;20067;-66
2023/02/02 15:15:47;;;;;;;10.75;6.15;;;;;;;;;;6129981;28;20055;-66
2023/02/02 15:18:57;;;;;;;10.07;5.77;;;;;;;;;;6130684;28;20238;-66
2023/02/02 15:22:01;;;;;;;13.80;7.15;;;;;;;;;;6129175;28;20048;-67
2023/02/02 15:25:12;;;;;;;12.38;6.68;;;;;;;;;;6129117;28;20043;-66
2023/02/02 15:28:21;;;;;;;20.98;7.85;;;;;;;;;;6129091;28;20056;-67
2023/02/02 15:31:29;;;;;;;12.38;7.22;;;;;;;;;;6128024;28;20063;-67
2023/02/02 15:34:38;;;;;;;18.20;8.80;;;;;;;;;;6127733;28;20107;-67
2023/02/02 15:37:40;;;;;;;13.57;8.75;;;;;;;;;;6127055;28;20056;-67
2023/02/02 15:40:44;;;;;;;15.77;9.13;;;;;;;;;;6128654;28;20062;-66
2023/02/02 15:43:46;;;;;;;17.95;9.93;;;;;;;;;;6127026;28;20236;-67
2023/02/02 15:46:48;;;;;;;15.63;9.02;;;;;;;;;;6129048;28;20056;-68
2023/02/02 15:49:50;;;;;;;17.45;9.70;;;;;;;;;;6127637;29;20056;-68
2023/02/02 15:52:53;;;;;;;18.48;9.77;;;;;;;;;;6126673;28;20263;-67
2023/02/02 15:55:56;;;;;;;20.65;9.88;;;;;;;;;;6128340;28;20251;-67
2023/02/02 15:59:00;;;;;;;20.13;10.43;;;;;;;;;;6125803;28;20078;-67
2023/02/02 16:02:12;;;;;;;19.20;9.77;;;;;;;;;;6130176;29;20090;-67
2023/02/02 16:05:24;;;;;;;20.45;10.25;;;;;;;;;;6130997;28;20066;-68
2023/02/02 16:08:28;;;;;;;17.50;9.93;;;;;;;;;;6128487;29;20047;-66
2023/02/02 16:11:31;;;;;;;18.90;9.98;;;;;;;;;;6129885;28;20043;-66
2023/02/02 16:14:35;;;;;;;19.83;9.77;;;;;;;;;;6125040;28;20055;-67
2023/02/02 16:17:36;;;;;;;;;;;;;;;;;;6129866;28;20063;-67
2023/02/02 16:20:39;;;;;;;20.88;10.05;;;;;;;;;;6128695;28;19934;-66
2023/02/02 16:23:41;;;;;;;21.63;10.10;;;;;;;;;;6126757;28;20055;-66
2023/02/02 16:26:44;;;;;;;19.63;10.10;;;;;;;;;;6126631;28;20047;-66
2023/02/02 16:29:47;;;;;;;18.10;9.02;;;;;;;;;;6125654;28;20086;-67
2023/02/02 16:32:48;;;;;;;23.05;10.07;;;;;;;;;;6126172;28;20055;-68
2023/02/02 16:35:50;;;;;;;19.75;9.43;;;;;;;;;;6128837;28;20052;-67
2023/02/02 16:38:52;;;;;;;16.02;9.07;;;;;;;;;;6128986;28;20058;-67
2023/02/02 16:42:08;;;;;;;20.25;10.05;;;;;;;;;;6126124;28;20460;-67
2023/02/02 16:45:31;;;;;;;18.48;9.10;;;;;;;;;;6127758;28;20056;-66
2023/02/02 16:48:35;;;;;;;20.67;9.75;;;;;;;;;;6127588;28;20055;-66
2023/02/02 16:51:36;;;;;;;23.23;10.63;;;;;;;;;;6127575;28;20074;-67
2023/02/02 16:54:42;;;;;;;16.55;8.88;;;;;;;;;;6126196;28;20059;-67
2023/02/02 16:57:46;;;;;;;16.02;9.45;;;;;;;;;;6122244;28;20255;-67
2023/02/02 17:00:52;;;;;;;;;;;;;;;;;;6123428;28;20059;-65
2023/02/02 17:03:54;;;;;;;17.60;8.30;;;;;;;;;;6125267;29;20000;-66
2023/02/02 17:06:58;;;;;;;17.20;8.77;;;;;;;;;;6125118;28;20127;-66
2023/02/02 17:10:23;;;;;;;22.92;10.20;;;;;;;;;;6125345;28;20339;-65
2023/02/02 17:13:40;;;;;;;20.17;9.25;;;;;;;;;;6126126;28;20052;-65
2023/02/02 17:16:42;;;;;;;19.02;8.43;;;;;;;;;;6124640;28;20055;-65
2023/02/02 17:19:43;;;;;;;18.90;8.88;;;;;;;;;;6124096;28;20051;-66
2023/02/02 17:22:47;;;;;;;18.05;8.30;;;;;;;;;;6126300;28;20062;-65
2023/02/02 17:25:48;;;;;;;17.00;8.27;;;;;;;;;;6122800;28;20066;-65
2023/02/02 17:28:55;;;;;;;18.42;7.95;;;;;;;;;;6121461;28;20068;-65
2023/02/02 17:31:56;;;;;;;17.35;8.68;;;;;;;;;;6125461;29;20233;-65
2023/02/02 17:34:58;;;;;;;16.13;8.07;;;;;;;;;;6124194;28;20118;-66
2023/02/02 17:38:00;;;;;;;16.42;7.97;;;;;;;;;;6123554;28;20147;-65
2023/02/02 17:41:02;;;;;;;20.40;8.48;;;;;;;;;;6126549;28;20135;-65
2023/02/02 17:44:08;;;;;;;19.73;8.70;;;;;;;;;;6125291;28;20355;-66
2023/02/02 17:47:13;;;;;;;18.50;8.55;;;;;;;;;;6121907;28;20051;-65
2023/02/02 17:50:15;;;;;;;16.92;8.45;;;;;;;;;;6120390;28;20107;-65
2023/02/02 17:53:19;;;;;;;16.23;8.13;;;;;;;;;;6124451;28;20087;-65
2023/02/02 17:56:21;;;;;;;17.80;8.60;;;;;;;;;;6121449;28;20134;-66
2023/02/02 17:59:24;;;;;;;17.38;8.43;;;;;;;;;;6123020;28;20052;-65
2023/02/02 18:02:25;;;;;;;19.40;9.17;;;;;;;;;;6124316;28;20091;-66
2023/02/02 18:05:27;;;;;;;19.95;8.88;;;;;;;;;;6124962;28;20061;-65
2023/02/02 18:08:29;;;;;;;20.92;8.68;;;;;;;;;;6126000;29;20055;-65
2023/02/02 18:11:31;;;;;;;18.95;9.02;;;;;;;;;;6125268;28;20056;-65
2023/02/02 18:14:34;;;;;;;19.02;8.82;;;;;;;;;;6125842;28;20265;-66
2023/02/02 18:17:36;;;;;;;20.03;8.57;;;;;;;;;;6126119;28;20111;-65
2023/02/02 18:20:37;;;;;;;17.65;9.05;;;;;;;;;;6125429;28;20070;-65
2023/02/02 18:23:39;;;;;;;18.35;9.07;;;;;;;;;;6126841;28;21782;-64
2023/02/02 18:26:41;;;;;;;20.83;8.85;;;;;;;;;;6125775;28;20062;-65
2023/02/02 18:29:44;;;;;;;20.10;10.10;;;;;;;;;;6128780;28;20104;-65
2023/02/02 18:32:48;;;;;;;22.42;10.18;;;;;;;;;;6130315;28;20336;-65
2023/02/02 18:35:50;;;;;;;18.90;9.73;;;;;;;;;;6128874;28;20066;-65